createdAt,value
2018-04-26T00:01:20.125Z,97482.11
2018-04-26T00:03:46.569Z,97485.60
2018-04-26T00:06:12.908Z,97486.84
2018-04-26T00:08:39.408Z,97489.62
2018-04-26T00:11:05.655Z,97477.98
2018-04-26T00:13:32.140Z,97486.05
2018-04-26T00:15:58.416Z,97473.48
2018-04-26T00:18:24.647Z,97484.70
2018-04-26T00:20:51.252Z,97480.82
2018-04-26T00:23:17.782Z,97485.86
2018-04-26T00:25:44.103Z,97490.11
2018-04-26T00:28:10.636Z,97490.27
2018-04-26T00:30:37.038Z,97491.59
2018-04-26T00:33:03.356Z,97482.23
2018-04-26T00:35:29.742Z,97490.77
2018-04-26T00:37:56.048Z,97499.77
2018-04-26T00:40:22.590Z,97491.45
2018-04-26T00:42:48.907Z,97492.72
2018-04-26T00:45:15.450Z,97497.70
2018-04-26T00:47:41.803Z,97490.09
2018-04-26T00:50:08.204Z,97481.52
2018-04-26T00:52:34.544Z,97468.46
2018-04-26T00:55:00.812Z,97463.18
2018-04-26T00:57:27.336Z,97458.94
2018-04-26T00:59:53.623Z,97461.76
2018-04-26T01:02:19.888Z,97456.29
2018-04-26T01:04:46.776Z,97455.48
2018-04-26T01:07:13.228Z,97456.83
2018-04-26T01:09:39.569Z,97456.50
2018-04-26T01:12:06.147Z,97460.90
2018-04-26T01:14:32.420Z,97462.67
2018-04-26T01:16:58.960Z,97472.04
2018-04-26T01:19:25.308Z,97466.88
2018-04-26T01:21:52.523Z,97454.81
2018-04-26T01:24:19.053Z,97465.50
2018-04-26T01:26:45.404Z,97470.37
2018-04-26T01:29:11.800Z,97459.89
2018-04-26T01:31:38.287Z,97464.86
2018-04-26T01:34:04.585Z,97473.20
2018-04-26T01:36:43.050Z,97466.41
2018-04-26T01:39:09.535Z,97471.23
2018-04-26T01:41:35.787Z,97471.05
2018-04-26T01:44:02.149Z,97471.72
2018-04-26T01:46:29.375Z,97465.92
2018-04-26T01:48:55.636Z,97458.69
2018-04-26T01:51:21.980Z,97455.38
2018-04-26T01:53:48.328Z,97449.94
2018-04-26T01:56:14.793Z,97445.91
2018-04-26T01:58:41.073Z,97454.99
2018-04-26T02:01:07.641Z,97449.06
2018-04-26T02:03:33.946Z,97451.11
2018-04-26T02:06:00.492Z,97457.10
2018-04-26T02:08:27.639Z,97454.09
2018-04-26T02:10:54.060Z,97454.77
2018-04-26T02:13:20.472Z,97461.28
2018-04-26T02:15:47.336Z,97462.00
2018-04-26T02:18:13.603Z,97460.76
2018-04-26T02:20:39.969Z,97460.94
2018-04-26T02:23:06.576Z,97471.00
2018-04-26T02:25:32.855Z,97476.02
2018-04-26T02:27:59.132Z,97475.01
2018-04-26T02:30:25.757Z,97469.37
2018-04-26T02:32:52.019Z,97464.58
2018-04-26T02:35:18.416Z,97460.98
2018-04-26T02:37:44.699Z,97459.22
2018-04-26T02:40:11.228Z,97453.03
2018-04-26T02:45:02.296Z,97460.45
2018-04-26T02:47:28.556Z,97455.91
2018-04-26T02:49:54.917Z,97464.47
2018-04-26T02:52:21.193Z,97464.88
2018-04-26T02:54:47.602Z,97456.55
2018-04-26T02:57:13.911Z,97460.32
2018-04-26T02:59:40.279Z,97455.25
2018-04-26T03:02:06.596Z,97444.81
2018-04-26T03:04:32.975Z,97427.19
2018-04-26T03:06:59.355Z,97428.62
2018-04-26T03:09:25.688Z,97429.14
2018-04-26T03:11:51.943Z,97431.81
2018-04-26T03:14:18.205Z,97435.25
2018-04-26T03:16:44.455Z,97442.92
2018-04-26T03:19:10.666Z,97444.70
2018-04-26T03:21:36.926Z,97444.80
2018-04-26T03:24:03.178Z,97433.25
2018-04-26T03:26:29.519Z,97427.34
2018-04-26T03:28:55.827Z,97434.18
2018-04-26T03:31:22.059Z,97433.07
2018-04-26T03:33:48.287Z,97434.22
2018-04-26T03:36:14.562Z,97431.96
2018-04-26T03:38:40.782Z,97435.26
2018-04-26T03:41:06.991Z,97430.57
2018-04-26T03:43:33.252Z,97427.73
2018-04-26T03:45:59.502Z,97431.64
2018-04-26T03:48:25.735Z,97414.84
2018-04-26T03:50:52.146Z,97412.55
2018-04-26T03:53:18.374Z,97422.90
2018-04-26T03:55:44.622Z,97415.22
2018-04-26T03:58:10.884Z,97413.69
2018-04-26T04:00:49.276Z,97409.14
2018-04-26T04:03:27.771Z,97423.03
2018-04-26T04:19:16.720Z,97418.14
2018-04-26T04:21:42.938Z,97419.56
2018-04-26T04:24:09.205Z,97419.45
2018-04-26T04:26:35.491Z,97430.02
2018-04-26T04:29:01.720Z,97435.54
2018-04-26T04:31:27.943Z,97442.77
2018-04-26T04:33:54.203Z,97452.27
2018-04-26T04:36:20.431Z,97464.19
2018-04-26T04:38:46.659Z,97463.58
2018-04-26T04:41:12.923Z,97481.27
2018-04-26T04:43:39.155Z,97488.83
2018-04-26T04:46:05.398Z,97499.86
2018-04-26T04:48:31.696Z,97514.28
2018-04-26T04:50:57.967Z,97537.78
2018-04-26T04:53:24.203Z,97544.09
2018-04-26T04:55:50.519Z,97531.56
2018-04-26T04:58:16.747Z,97533.57
2018-04-26T05:00:42.991Z,97539.55
2018-04-26T05:03:09.259Z,97538.09
2018-04-26T05:05:35.497Z,97527.23
2018-04-26T05:08:01.735Z,97522.86
2018-04-26T05:10:28.007Z,97519.33
2018-04-26T05:12:54.235Z,97525.26
2018-04-26T05:15:20.463Z,97523.70
2018-04-26T05:17:46.726Z,97519.47
2018-04-26T05:20:12.955Z,97521.61
2018-04-26T05:22:39.199Z,97528.20
2018-04-26T05:25:05.462Z,97526.72
2018-04-26T05:27:31.700Z,97515.58
2018-04-26T05:29:58.018Z,97516.95
2018-04-26T05:32:24.227Z,97530.39
2018-04-26T05:34:50.469Z,97533.25
2018-04-26T05:37:16.692Z,97536.00
2018-04-26T05:39:43.051Z,97539.28
2018-04-26T05:42:09.236Z,97530.89
2018-04-26T05:44:35.515Z,97540.84
2018-04-26T05:47:01.783Z,97548.28
2018-04-26T05:49:28.027Z,97552.97
2018-04-26T05:51:54.246Z,97554.23
2018-04-26T05:54:20.512Z,97546.00
2018-04-26T05:56:46.744Z,97538.50
2018-04-26T05:59:12.975Z,97545.66
2018-04-26T06:01:39.239Z,97551.27
2018-04-26T06:04:05.466Z,97553.09
2018-04-26T06:06:31.691Z,97545.39
2018-04-26T06:08:57.976Z,97545.16
2018-04-26T06:11:24.309Z,97558.28
2018-04-26T06:13:50.483Z,97556.65
2018-04-26T06:16:16.736Z,97569.72
2018-04-26T06:18:42.955Z,97565.13
2018-04-26T06:21:09.178Z,97569.89
2018-04-26T06:23:35.435Z,97576.20
2018-04-26T06:26:01.659Z,97578.34
2018-04-26T06:28:27.883Z,97590.13
2018-04-26T06:30:54.154Z,97585.34
2018-04-26T06:33:20.388Z,97590.78
2018-04-26T06:35:46.658Z,97586.45
2018-04-26T06:38:12.916Z,97591.28
2018-04-26T06:40:39.150Z,97589.17
2018-04-26T06:43:05.377Z,97588.12
2018-04-26T06:45:31.631Z,97582.45
2018-04-26T06:47:57.876Z,97578.94
2018-04-26T06:50:24.108Z,97574.48
2018-04-26T06:52:50.371Z,97574.30
2018-04-26T06:55:16.595Z,97572.48
2018-04-26T06:57:42.815Z,97569.50
2018-04-26T07:00:09.067Z,97563.45
2018-04-26T07:02:35.289Z,97569.84
2018-04-26T07:05:01.600Z,97574.05
2018-04-26T07:07:27.791Z,97576.69
2018-04-26T07:09:54.011Z,97579.08
2018-04-26T07:12:20.243Z,97589.61
2018-04-26T07:14:46.503Z,97589.27
2018-04-26T07:17:12.721Z,97585.23
2018-04-26T07:19:38.951Z,97584.66
2018-04-26T07:22:05.210Z,97593.09
2018-04-26T07:24:31.431Z,97594.46
2018-04-26T07:26:57.655Z,97577.24
2018-04-26T07:29:23.915Z,97581.98
2018-04-26T07:31:50.146Z,97583.95
2018-04-26T07:34:16.379Z,97585.12
2018-04-26T07:36:42.651Z,97585.03
2018-04-26T07:39:08.874Z,97579.17
2018-04-26T07:41:35.106Z,97571.81
2018-04-26T07:44:01.372Z,97574.48
2018-04-26T07:46:27.640Z,97581.79
2018-04-26T07:48:53.903Z,97575.63
2018-04-26T07:51:20.154Z,97573.76
2018-04-26T07:53:46.383Z,97570.33
2018-04-26T07:56:12.619Z,97571.20
2018-04-26T07:58:38.873Z,97575.94
2018-04-26T08:01:05.116Z,97584.34
2018-04-26T08:03:31.339Z,97596.22
2018-04-26T08:05:57.605Z,97602.88
2018-04-26T08:08:23.832Z,97599.21
2018-04-26T08:10:50.091Z,97605.94
2018-04-26T08:13:16.351Z,97615.23
2018-04-26T08:15:42.585Z,97605.49
2018-04-26T08:18:08.814Z,97611.77
2018-04-26T08:20:35.074Z,97638.78
2018-04-26T08:23:01.295Z,97614.92
2018-04-26T08:25:27.520Z,97621.95
2018-04-26T08:27:53.778Z,97627.41
2018-04-26T08:30:20.016Z,97630.50
2018-04-26T08:32:46.251Z,97631.13
2018-04-26T08:35:12.517Z,97632.55
2018-04-26T08:37:38.746Z,97643.44
2018-04-26T08:40:05.003Z,97664.34
2018-04-26T08:42:31.262Z,97656.97
2018-04-26T08:44:57.520Z,97664.15
2018-04-26T08:47:23.748Z,97667.41
2018-04-26T08:49:50.007Z,97665.42
2018-04-26T08:52:16.312Z,97670.94
2018-04-26T08:54:42.491Z,97677.70
2018-04-26T08:57:08.756Z,97683.16
2018-04-26T08:59:34.978Z,97686.43
2018-04-26T09:02:01.229Z,97677.31
2018-04-26T09:04:27.485Z,97673.49
2018-04-26T09:06:53.725Z,97680.00
2018-04-26T09:09:19.950Z,97684.88
2018-04-26T09:11:46.207Z,97670.45
2018-04-26T09:14:12.748Z,97663.55
2018-04-26T09:16:46.050Z,97665.66
2018-04-26T09:19:12.278Z,97670.05
2018-04-26T09:21:38.506Z,97678.02
2018-04-26T09:24:11.827Z,97669.82
2018-04-26T09:26:38.067Z,97670.55
2018-04-26T09:29:04.300Z,97670.20
2018-04-26T09:31:30.568Z,97667.23
2018-04-26T09:33:56.799Z,97682.52
2018-04-26T09:36:23.048Z,97672.41
2018-04-26T09:38:49.342Z,97671.55
2018-04-26T09:41:15.605Z,97684.59
2018-04-26T09:43:41.851Z,97677.85
2018-04-26T09:46:15.003Z,97686.02
2018-04-26T09:48:41.235Z,97675.38
2018-04-26T09:51:07.504Z,97678.66
2018-04-26T09:53:33.767Z,97679.53
2018-04-26T09:55:59.998Z,97691.44
2018-04-26T09:58:26.278Z,97659.28
2018-04-26T10:00:52.619Z,97645.59
2018-04-26T10:03:18.849Z,97654.07
2018-04-26T10:05:51.067Z,97660.83
2018-04-26T10:08:17.388Z,97667.69
2018-04-26T10:10:43.598Z,97674.73
2018-04-26T10:13:09.827Z,97670.95
2018-04-26T10:15:36.083Z,97670.46
2018-04-26T10:18:02.332Z,97666.17
2018-04-26T10:20:28.554Z,97687.84
2018-04-26T10:22:54.802Z,97676.44
2018-04-26T10:25:21.028Z,97673.64
2018-04-26T10:27:47.250Z,97670.53
2018-04-26T10:30:13.511Z,97679.94
2018-04-26T10:32:39.747Z,97680.59
2018-04-26T10:35:05.972Z,97675.86
2018-04-26T10:37:32.235Z,97667.78
2018-04-26T10:39:58.486Z,97681.27
2018-04-26T10:42:24.719Z,97672.52
2018-04-26T10:44:50.982Z,97678.94
2018-04-26T10:47:17.219Z,97682.87
2018-04-26T10:49:43.447Z,97685.97
2018-04-26T10:52:09.702Z,97685.20
2018-04-26T10:54:35.932Z,97695.00
2018-04-26T10:57:02.170Z,97714.09
2018-04-26T10:59:28.419Z,97709.47
2018-04-26T11:01:54.645Z,97702.08
2018-04-26T11:04:20.872Z,97694.23
2018-04-26T11:06:47.126Z,97691.03
2018-04-26T11:09:13.422Z,97688.96
2018-04-26T11:11:39.666Z,97687.81
2018-04-26T11:14:05.935Z,97677.05
2018-04-26T11:16:32.175Z,97676.45
2018-04-26T11:18:58.411Z,97672.19
2018-04-26T11:21:24.727Z,97671.50
2018-04-26T11:23:50.934Z,97670.73
2018-04-26T11:26:17.191Z,97671.92
2018-04-26T11:28:43.461Z,97666.75
2018-04-26T11:31:09.758Z,97674.67
2018-04-26T11:33:35.952Z,97685.25
2018-04-26T11:36:02.236Z,97694.83
2018-04-26T11:38:28.500Z,97673.80
2018-04-26T11:40:54.717Z,97702.13
2018-04-26T11:43:20.966Z,97725.03
2018-04-26T11:45:47.207Z,97751.42
2018-04-26T11:48:13.436Z,97730.36
2018-04-26T11:50:39.694Z,97689.04
2018-04-26T11:53:05.918Z,97697.53
2018-04-26T11:55:32.147Z,97699.92
2018-04-26T11:57:58.398Z,97699.42
2018-04-26T12:00:24.631Z,97698.61
2018-04-26T12:02:50.873Z,97702.21
2018-04-26T12:05:17.142Z,97712.91
2018-04-26T12:07:43.416Z,97713.15
2018-04-26T12:10:09.662Z,97699.89
2018-04-26T12:12:35.923Z,97714.03
2018-04-26T12:15:02.149Z,97700.63
2018-04-26T12:17:28.371Z,97702.08
2018-04-26T12:19:54.643Z,97700.09
2018-04-26T12:22:20.887Z,97696.37
2018-04-26T12:24:47.138Z,97696.73
2018-04-26T12:27:13.394Z,97688.38
2018-04-26T12:29:39.635Z,97689.97
2018-04-26T12:32:05.874Z,97696.03
2018-04-26T12:34:32.143Z,97700.27
2018-04-26T12:36:58.414Z,97696.02
2018-04-26T12:39:24.651Z,97691.55
2018-04-26T12:41:50.924Z,97700.45
2018-04-26T12:44:17.148Z,97703.28
2018-04-26T12:46:43.374Z,97699.91
2018-04-26T12:49:09.643Z,97711.43
2018-04-26T12:51:35.888Z,97704.31
2018-04-26T12:54:02.123Z,97702.44
2018-04-26T12:56:28.391Z,97708.52
2018-04-26T12:58:54.614Z,97695.33
2018-04-26T13:01:20.851Z,97706.18
2018-04-26T13:03:47.107Z,97694.10
2018-04-26T13:06:13.330Z,97720.78
2018-04-26T13:08:39.555Z,97693.81
2018-04-26T13:11:05.820Z,97720.67
2018-04-26T13:13:32.040Z,97735.20
2018-04-26T13:15:58.269Z,97730.78
2018-04-26T13:18:24.524Z,97748.43
2018-04-26T13:20:50.751Z,97758.89
2018-04-26T13:23:16.972Z,97725.50
2018-04-26T13:25:43.246Z,97745.80
2018-04-26T13:28:09.470Z,97765.76
2018-04-26T13:30:35.705Z,97774.09
2018-04-26T13:33:01.983Z,97768.63
2018-04-26T13:35:28.219Z,97764.21
2018-04-26T13:37:54.459Z,97764.30
2018-04-26T13:40:20.732Z,97768.03
2018-04-26T13:42:46.975Z,97772.45
2018-04-26T13:45:13.216Z,97774.61
2018-04-26T13:47:39.480Z,97774.47
2018-04-26T13:50:05.718Z,97764.54
2018-04-26T13:52:31.951Z,97753.64
2018-04-26T13:54:58.224Z,97768.33
2018-04-26T13:57:24.459Z,97756.75
2018-04-26T13:59:50.695Z,97772.50
2018-04-26T14:02:17.155Z,97766.72
2018-04-26T14:04:43.406Z,97774.36
2018-04-26T14:07:09.675Z,97784.31
2018-04-26T14:09:35.930Z,97776.42
2018-04-26T14:12:02.185Z,97784.63
2018-04-26T14:14:28.406Z,97782.02
2018-04-26T14:16:54.667Z,97793.06
2018-04-26T14:19:20.899Z,97792.80
2018-04-26T14:21:47.123Z,97789.01
2018-04-26T14:24:13.378Z,97782.70
2018-04-26T14:26:39.614Z,97771.59
2018-04-26T14:29:05.858Z,97777.70
2018-04-26T14:31:32.115Z,97775.42
2018-04-26T14:33:58.342Z,97781.56
2018-04-26T14:36:24.565Z,97774.43
2018-04-26T14:38:50.838Z,97783.61
2018-04-26T14:41:17.079Z,97784.28
2018-04-26T14:43:43.314Z,97787.82
2018-04-26T14:46:09.575Z,97773.07
2018-04-26T14:48:35.803Z,97769.60
2018-04-26T14:51:02.043Z,97771.11
2018-04-26T14:53:28.303Z,97780.12
2018-04-26T14:55:54.533Z,97770.95
2018-04-26T14:58:20.783Z,97771.66
2018-04-26T15:00:47.039Z,97769.73
2018-04-26T15:03:13.267Z,97753.72
2018-04-26T15:05:39.486Z,97744.95
2018-04-26T15:08:05.743Z,97780.78
2018-04-26T15:10:32.042Z,97762.78
2018-04-26T15:12:58.644Z,97763.59
2018-04-26T15:15:24.954Z,97749.76
2018-04-26T15:17:51.577Z,97753.82
2018-04-26T15:20:17.985Z,97750.41
2018-04-26T15:22:44.539Z,97748.31
2018-04-26T15:25:10.903Z,97745.56
2018-04-26T15:27:37.186Z,97747.03
2018-04-26T15:30:03.811Z,97737.35
2018-04-26T15:32:30.092Z,97754.97
2018-04-26T15:34:56.483Z,97763.89
2018-04-26T15:37:22.854Z,97766.20
2018-04-26T15:39:49.223Z,97760.58
2018-04-26T15:42:15.577Z,97761.14
2018-04-26T15:44:41.854Z,97763.95
2018-04-26T15:47:08.294Z,97764.59
2018-04-26T15:49:34.546Z,97768.53
2018-04-26T15:52:00.810Z,97766.61
2018-04-26T15:54:36.214Z,97771.09
2018-04-26T15:57:25.766Z,97768.48
2018-04-26T16:00:04.331Z,97774.92
2018-04-26T16:02:57.762Z,97774.18
2018-04-26T16:05:38.041Z,97772.98
2018-04-26T16:08:22.714Z,97769.95
2018-04-26T16:11:07.458Z,97773.43
2018-04-26T16:13:52.132Z,97772.29
2018-04-26T16:16:36.819Z,97780.00
2018-04-26T16:19:26.298Z,97774.02
2018-04-26T16:22:10.907Z,97779.43
2018-04-26T16:24:53.647Z,97770.66
2018-04-26T16:27:38.983Z,97767.63
2018-04-26T16:30:17.863Z,97772.86
2018-04-26T16:33:02.502Z,97772.09
2018-04-26T16:35:41.158Z,97772.84
2018-04-26T16:38:19.817Z,97775.59
2018-04-26T16:40:46.095Z,97780.12
2018-04-26T16:43:12.412Z,97782.17
2018-04-26T16:45:38.753Z,97788.61
2018-04-26T16:48:05.170Z,97809.89
2018-04-26T16:50:31.407Z,97810.03
2018-04-26T16:52:57.832Z,97802.98
2018-04-26T16:55:24.118Z,97801.89
2018-04-26T16:57:50.527Z,97819.20
2018-04-26T17:00:16.771Z,97826.36
2018-04-26T17:02:43.345Z,97832.27
2018-04-26T17:05:09.606Z,97828.57
2018-04-26T17:07:35.971Z,97832.30
2018-04-26T17:10:02.332Z,97842.24
2018-04-26T17:12:28.766Z,97835.09
2018-04-26T17:14:55.119Z,97839.16
2018-04-26T17:17:21.379Z,97836.76
2018-04-26T17:19:47.941Z,97835.87
2018-04-26T17:22:14.244Z,97837.55
2018-04-26T17:24:40.631Z,97839.72
2018-04-26T17:27:07.000Z,97845.22
2018-04-26T17:29:33.295Z,97835.72
2018-04-26T17:31:59.771Z,97839.19
2018-04-26T17:34:26.003Z,97842.17
2018-04-26T17:36:52.482Z,97843.51
2018-04-26T17:39:18.769Z,97848.37
2018-04-26T17:41:45.180Z,97849.59
2018-04-26T17:44:11.470Z,97848.55
2018-04-26T17:46:37.798Z,97857.35
2018-04-26T17:49:04.298Z,97856.93
2018-04-26T17:51:30.616Z,97862.53
2018-04-26T17:53:57.129Z,97869.05
2018-04-26T17:56:23.439Z,97874.46
2018-04-26T17:58:49.667Z,97877.73
2018-04-26T18:01:15.936Z,97871.39
2018-04-26T18:03:42.187Z,97873.27
2018-04-26T18:06:08.446Z,97871.55
2018-04-26T18:08:34.775Z,97873.47
2018-04-26T18:11:01.043Z,97868.31
2018-04-26T18:13:27.284Z,97873.31
2018-04-26T18:15:53.632Z,97879.52
2018-04-26T18:18:19.863Z,97880.16
2018-04-26T18:20:46.308Z,97876.39
2018-04-26T18:23:12.634Z,97889.60
2018-04-26T18:25:39.131Z,97888.19
2018-04-26T18:28:05.363Z,97894.66
2018-04-26T18:30:31.712Z,97898.75
2018-04-26T18:32:58.011Z,97899.52
2018-04-26T18:35:24.275Z,97894.12
2018-04-26T18:37:50.601Z,97896.13
2018-04-26T18:40:16.847Z,97898.31
2018-04-26T18:42:44.346Z,97904.89
2018-04-26T18:45:10.715Z,97905.73
2018-04-26T18:47:37.035Z,97908.11
2018-04-26T18:50:03.366Z,97905.41
2018-04-26T18:52:29.634Z,97906.77
2018-04-26T18:54:56.017Z,97910.73
2018-04-26T18:57:22.267Z,97911.63
2018-04-26T18:59:48.578Z,97909.58
2018-04-26T19:02:14.807Z,97910.78
2018-04-26T19:04:41.129Z,97909.70
2018-04-26T19:07:07.412Z,97905.92
2018-04-26T19:09:33.701Z,97916.27
2018-04-26T19:12:00.015Z,97920.94
2018-04-26T19:14:26.348Z,97919.94
2018-04-26T19:16:52.626Z,97927.98
2018-04-26T19:19:18.876Z,97926.51
2018-04-26T19:21:45.225Z,97934.71
2018-04-26T19:24:11.478Z,97932.85
2018-04-26T19:26:38.149Z,97937.64
2018-04-26T19:29:04.647Z,97937.41
2018-04-26T19:31:31.221Z,97943.92
2018-04-26T19:33:57.522Z,97941.61
2018-04-26T19:36:23.880Z,97944.30
2018-04-26T19:38:50.320Z,97945.01
2018-04-26T19:41:16.605Z,97947.31
2018-04-26T19:43:42.867Z,97951.37
2018-04-26T19:46:09.114Z,97949.98
2018-04-26T19:48:35.355Z,97956.27
2018-04-26T19:51:01.622Z,97949.56
2018-04-26T19:53:27.878Z,97951.75
2018-04-26T19:55:54.099Z,97948.33
2018-04-26T19:58:20.367Z,97947.44
2018-04-26T20:00:46.610Z,97949.66
2018-04-26T20:03:12.920Z,97958.75
2018-04-26T20:05:39.202Z,97958.13
2018-04-26T20:08:05.440Z,97962.97
2018-04-26T20:10:31.782Z,97960.81
2018-04-26T20:12:58.050Z,97961.73
2018-04-26T20:15:24.360Z,97962.73
2018-04-26T20:17:50.590Z,97962.62
2018-04-26T20:20:16.854Z,97974.27
2018-04-26T20:22:43.098Z,97968.27
2018-04-26T20:25:09.338Z,97972.94
2018-04-26T20:27:35.615Z,97970.77
2018-04-26T20:30:01.899Z,97969.73
2018-04-26T20:32:28.139Z,97969.72
2018-04-26T20:34:54.695Z,97970.94
2018-04-26T20:37:21.151Z,97967.50
2018-04-26T20:39:47.433Z,97971.17
2018-04-26T20:42:13.899Z,97965.03
2018-04-26T20:44:47.314Z,97968.34
2018-04-26T20:47:13.639Z,97962.23
2018-04-26T20:49:39.877Z,97962.58
2018-04-26T20:52:06.311Z,97957.50
2018-04-26T20:54:32.702Z,97963.11
2018-04-26T20:56:58.986Z,97960.23
2018-04-26T20:59:25.393Z,97964.97
2018-04-26T21:01:51.711Z,97964.08
2018-04-26T21:04:17.998Z,97977.29
2018-04-26T21:06:44.672Z,97969.83
2018-04-26T21:09:11.015Z,97971.06
2018-04-26T21:11:37.259Z,97971.41
2018-04-26T21:14:03.544Z,97973.63
2018-04-26T21:16:30.042Z,97978.19
2018-04-26T21:18:56.293Z,97980.97
2018-04-26T21:21:22.538Z,97985.28
2018-04-26T21:23:48.846Z,97989.79
2018-04-26T21:26:15.159Z,97982.32
2018-04-26T21:28:41.488Z,97982.14
2018-04-26T21:31:07.717Z,97992.12
2018-04-26T21:33:33.985Z,97996.54
2018-04-26T21:36:00.239Z,97999.95
2018-04-26T21:38:26.504Z,97993.00
2018-04-26T21:40:52.903Z,98000.23
2018-04-26T21:43:19.151Z,97994.30
2018-04-26T21:45:45.506Z,97996.53
2018-04-26T21:48:11.775Z,97997.27
2018-04-26T21:50:44.239Z,97998.50
2018-04-26T21:53:16.482Z,97995.36
2018-04-26T21:55:48.971Z,97999.92
2018-04-26T21:58:21.267Z,97995.02
2018-04-26T22:00:53.518Z,97996.55
2018-04-26T22:16:37.607Z,97994.93
2018-04-26T22:19:03.846Z,97990.80
2018-04-26T22:21:30.082Z,97993.19
2018-04-26T22:23:56.339Z,97995.70
2018-04-26T22:26:22.611Z,97999.80
2018-04-26T22:28:48.867Z,98002.80
2018-04-26T22:31:15.168Z,98009.16
2018-04-26T22:33:41.395Z,97998.04
2018-04-26T22:36:07.635Z,97998.88
2018-04-26T22:38:33.907Z,97994.73
2018-04-26T22:41:00.138Z,97994.10
2018-04-26T22:43:26.530Z,98004.49
2018-04-26T22:45:52.815Z,98001.83
2018-04-26T22:48:19.042Z,98000.90
2018-04-26T22:50:45.266Z,98005.14
2018-04-26T22:53:11.540Z,97996.69
2018-04-26T22:55:37.767Z,98004.44
2018-04-26T22:58:04.024Z,98007.20
2018-04-26T23:00:30.274Z,97995.60
2018-04-26T23:02:56.501Z,97989.08
2018-04-26T23:05:22.722Z,97992.45
2018-04-26T23:07:48.971Z,97991.45
2018-04-26T23:10:15.191Z,97990.30
2018-04-26T23:12:41.418Z,97996.08
2018-04-26T23:15:07.668Z,97992.22
2018-04-26T23:17:33.898Z,97992.31
2018-04-26T23:20:00.127Z,97996.46
2018-04-26T23:22:26.471Z,97996.09
2018-04-26T23:24:52.714Z,97992.66
2018-04-26T23:27:18.936Z,97997.12
2018-04-26T23:29:45.198Z,97993.88
2018-04-26T23:32:11.424Z,97999.11
2018-04-26T23:34:44.631Z,97993.41
2018-04-26T23:37:10.854Z,97993.05
2018-04-26T23:39:37.082Z,97988.80
2018-04-26T23:42:03.342Z,97992.56
2018-04-26T23:44:29.563Z,97985.89
2018-04-26T23:46:55.794Z,97982.28
2018-04-26T23:49:22.063Z,97979.34
2018-04-26T23:51:48.282Z,97972.41
2018-04-26T23:54:14.515Z,97968.96
2018-04-26T23:56:40.795Z,97970.11
2018-04-26T23:59:07.039Z,97970.41
